Nuka Arctica — OXYH2 — position and weather

sailwx.info

Track history (hours):
 
Tides and Currents Weather Stations Pressure Air Temp Water Temp Dewpoint Dewpoint Depression Visibility Wind Speed Wind Dir Waves Ship Positions

Nuka Arctica

Last reported at 2017-Nov-19 01:21 UTC. Time now 2017-Nov-20 21:30 UTC.
Position N 57°53' E 005°45'.

Length 132.92 m; beam 24 m; draft 7.65 m.

Type: Cargo ship. MMSI: 219655000.

Date/timePositionNaut miles runAvg speedWind from/ knotsBaromVisibWave heightAir tempDewpointWater temp
2017-Nov-19 01:21N 57°53' E 005°45'2 6.4
2017-Nov-19 00:58N 57°53' E 005°50'3 6.6
2017-Nov-19 00:29N 57°53' E 005°56'3 6.7
2017-Nov-19 00:00N 57°53' E 006°02'3 6.0
2017-Nov-18 23:31N 57°52' E 006°07'3 6.5
2017-Nov-18 23:00N 57°52' E 006°13'4 6.9
2017-Nov-18 22:30N 57°51' E 006°20'3 6.5
2017-Nov-18 22:00N 57°51' E 006°26'4 7.1
2017-Nov-18 21:30N 57°50' E 006°32'3 6.7
2017-Nov-18 21:00N 57°48' E 006°37'3 6.2
2017-Nov-18 20:30N 57°46' E 006°42'4 7.3
2017-Nov-18 20:00N 57°47' E 006°49'4 7.8
2017-Nov-18 19:30N 57°47' E 006°56'4 7.4
2017-Nov-18 19:00N 57°47' E 007°03'4 8.2
2017-Nov-18 18:30N 57°47' E 007°11'4 7.6
2017-Nov-18 18:00N 57°47' E 007°18'4 7.1
2017-Nov-18 17:30N 57°46' E 007°24'4 8.9
2017-Nov-18 17:00N 57°46' E 007°32'4 8.3
2017-Nov-18 16:30N 57°46' E 007°40'5 9.2
2017-Nov-18 16:00N 57°46' E 007°49'5 9.0
2017-Nov-18 15:30N 57°46' E 007°57'4 9.1
2017-Nov-18 15:00N 57°46' E 008°05'6811.1
2017-Nov-18 08:51N 57°47' E 010°13'412.1
2017-Nov-18 08:30N 57°47' E 010°21'611.9
2017-Nov-18 08:01N 57°47' E 010°32'611.8
2017-Nov-18 07:30N 57°47' E 010°43'714.1
2017-Nov-18 07:00N 57°40' E 010°45'816.0
2017-Nov-18 06:30N 57°32' E 010°44'815.9
2017-Nov-18 05:59N 57°24' E 010°44'715.1
2017-Nov-18 05:30N 57°16' E 010°42'23 7.8
2017-Nov-18 02:38N 56°55' E 010°29'212.6
2017-Nov-18 02:30N 56°56' E 010°27'510.8
2017-Nov-18 02:00N 56°59' E 010°19'510.6
2017-Nov-18 01:30N 57°00' E 010°10'4 8.5
2017-Nov-18 01:00N 57°03' E 010°03'0 0.0
2017-Nov-18 00:30N 57°03' E 010°03'0 0.0
2017-Nov-17 23:59N 57°03' E 010°03'0 0.0
2017-Nov-17 23:29N 57°03' E 010°03'0 0.0
2017-Nov-17 22:59N 57°03' E 010°03'0 0.0
2017-Nov-17 22:29N 57°03' E 010°03'0 0.0
2017-Nov-17 21:59N 57°03' E 010°03'0 0.0
2017-Nov-17 21:23N 57°03' E 010°03'0 0.0
2017-Nov-17 20:59N 57°03' E 010°03'0 0.0
2017-Nov-17 20:29N 57°03' E 010°03'0 0.0
2017-Nov-17 19:59N 57°03' E 010°03'0 0.0
2017-Nov-17 19:29N 57°03' E 010°03'0 0.0
2017-Nov-17 18:59N 57°03' E 010°03'0 0.0
2017-Nov-17 18:29N 57°03' E 010°03'0 0.0
2017-Nov-17 17:59N 57°03' E 010°03'0 0.0
2017-Nov-17 17:29N 57°03' E 010°03'0 0.0
2017-Nov-17 16:59N 57°03' E 010°03'0 0.0
2017-Nov-17 16:29N 57°03' E 010°03'0 0.0
2017-Nov-17 15:59N 57°03' E 010°03'0 0.0
2017-Nov-17 15:29N 57°03' E 010°03'0 0.0
2017-Nov-17 14:59N 57°03' E 010°03'0 0.0
2017-Nov-17 14:29N 57°03' E 010°03'0 0.0
2017-Nov-17 13:59N 57°03' E 010°03'0 0.0
2017-Nov-17 13:29N 57°03' E 010°03'0 0.0
2017-Nov-17 12:59N 57°03' E 010°03'0 0.0
2017-Nov-17 12:29N 57°03' E 010°03'0 0.0
2017-Nov-17 11:59N 57°03' E 010°03'0 0.0
2017-Nov-17 11:29N 57°03' E 010°03'0 0.0
2017-Nov-17 10:59N 57°03' E 010°03'0 0.0
2017-Nov-17 10:29N 57°03' E 010°03'0 0.0
2017-Nov-17 09:59N 57°03' E 010°03'0 0.0
2017-Nov-17 09:29N 57°03' E 010°03'0 0.0
2017-Nov-17 08:59N 57°03' E 010°03'0 0.0
2017-Nov-17 08:29N 57°03' E 010°03'0 0.0
2017-Nov-17 07:59N 57°03' E 010°03'0 0.0
2017-Nov-17 07:29N 57°03' E 010°03'0 0.0
2017-Nov-17 06:59N 57°03' E 010°03'0 0.0
2017-Nov-17 06:29N 57°03' E 010°03'0 0.0
2017-Nov-17 05:59N 57°03' E 010°03'0 0.0
2017-Nov-17 05:29N 57°03' E 010°03'0 0.0
2017-Nov-17 04:59N 57°03' E 010°03'0 0.0
2017-Nov-17 04:29N 57°03' E 010°03'0 0.0
2017-Nov-17 03:53N 57°03' E 010°03'0 0.0
2017-Nov-17 03:29N 57°03' E 010°03'0 0.0
2017-Nov-17 02:59N 57°03' E 010°03'0 0.0
2017-Nov-17 02:29N 57°03' E 010°03'0 0.0
2017-Nov-17 01:59N 57°03' E 010°03'0 0.0
2017-Nov-17 01:29N 57°03' E 010°03'0 0.0
2017-Nov-17 00:59N 57°03' E 010°03'0 0.0
2017-Nov-17 00:29N 57°03' E 010°03'0 0.0
2017-Nov-16 23:59N 57°03' E 010°03'0 0.0
2017-Nov-16 23:29N 57°03' E 010°03'0 0.0
2017-Nov-16 22:59N 57°03' E 010°03'0 0.0
2017-Nov-16 22:29N 57°03' E 010°03'0 0.0
2017-Nov-16 21:59N 57°03' E 010°03'0 0.0
2017-Nov-16 21:29N 57°03' E 010°03'0 0.0
2017-Nov-16 20:59N 57°03' E 010°03'0 0.0
2017-Nov-16 20:29N 57°03' E 010°03'0 0.0
2017-Nov-16 19:59N 57°03' E 010°03'0 0.0
2017-Nov-16 19:23N 57°03' E 010°03'0 0.0
2017-Nov-16 18:59N 57°03' E 010°03'0 0.0
2017-Nov-16 18:29N 57°03' E 010°03'0 0.0
2017-Nov-16 17:59N 57°03' E 010°03'0 0.0
2017-Nov-16 17:29N 57°03' E 010°03'0 0.0
2017-Nov-16 16:59N 57°03' E 010°03'0 0.0
2017-Nov-16 16:29N 57°03' E 010°03'0 0.0
2017-Nov-16 15:53N 57°03' E 010°03'0 0.0
2017-Nov-16 15:29N 57°03' E 010°03'0 0.0
2017-Nov-16 14:59N 57°03' E 010°03'0 0.0
2017-Nov-16 14:29N 57°03' E 010°03'0 0.0
2017-Nov-16 13:59N 57°03' E 010°03'0 0.0
2017-Nov-16 13:29N 57°03' E 010°03'0 0.0
2017-Nov-16 12:59N 57°03' E 010°03'0 0.0
2017-Nov-16 12:29N 57°03' E 010°03'0 0.0
2017-Nov-16 11:59N 57°03' E 010°03'0 0.0
2017-Nov-16 11:29N 57°03' E 010°03'0 0.0
2017-Nov-16 10:59N 57°03' E 010°03'0 0.0
2017-Nov-16 10:29N 57°03' E 010°03'0 0.0
2017-Nov-16 09:59N 57°03' E 010°03'0 0.0
2017-Nov-16 09:29N 57°03' E 010°03'0 0.0
2017-Nov-16 08:59N 57°03' E 010°03'0 0.0
2017-Nov-16 08:31N 57°03' E 010°03'2 4.2
2017-Nov-16 08:01N 57°02' E 010°07'611.6
2017-Nov-16 07:30N 56°59' E 010°16'611.0
2017-Nov-16 07:00N 56°57' E 010°25'811.8
2017-Nov-16 06:22N 56°52' E 010°36'22 9.0
2017-Nov-16 03:53N 57°14' E 010°43'512.2
2017-Nov-16 03:30N 57°18' E 010°42'612.4
2017-Nov-16 03:01N 57°25' E 010°43'612.8
2017-Nov-16 02:30N 57°31' E 010°43'712.9
2017-Nov-16 02:00N 57°38' E 010°44'712.7
2017-Nov-16 01:28N 57°44' E 010°45'613.1
2017-Nov-16 01:00N 57°46' E 010°35'816.5
2017-Nov-16 00:30N 57°45' E 010°19'1115.9
2017-Nov-15 23:48N 57°44' E 009°58'44415.5
2017-Nov-14 19:04N 59°31' W 003°50'215.9
2017-Nov-14 18:55N 59°31' W 003°54'  
2017-Nov-10 01:10N 63°25' W 051°44'212.6
2017-Nov-10 01:00N 63°27' W 051°46'712.5
2017-Nov-10 00:29N 63°33' W 051°52'612.5
2017-Nov-10 00:00N 63°38' W 051°57'611.9
2017-Nov-09 23:30N 63°44' W 052°02'612.2
2017-Nov-09 23:00N 63°49' W 052°08'612.2
2017-Nov-09 22:31N 63°55' W 052°14'611.9
2017-Nov-09 22:00N 64°00' W 052°17'714.3
2017-Nov-09 21:30N 64°05' W 052°04'917.1
2017-Nov-09 21:00N 64°09' W 051°47'2 3.8
2017-Nov-09 20:30N 64°10' W 051°43'0 0.0
2017-Nov-09 20:00N 64°10' W 051°43'0 0.0
2017-Nov-09 19:30N 64°10' W 051°43'0 0.0
2017-Nov-09 19:00N 64°10' W 051°43'0 0.0
2017-Nov-09 18:30N 64°10' W 051°43'0 0.0
2017-Nov-09 18:00N 64°10' W 051°43'0 0.0
2017-Nov-09 17:30N 64°10' W 051°43'0 0.0
2017-Nov-09 17:00N 64°10' W 051°43'0 0.0
2017-Nov-09 16:30N 64°10' W 051°43'0 0.0
2017-Nov-09 16:00N 64°10' W 051°43'0 0.0
2017-Nov-09 15:30N 64°10' W 051°43'0 0.0
2017-Nov-09 15:00N 64°10' W 051°43'0 0.0
2017-Nov-09 14:30N 64°10' W 051°43'0 0.0
2017-Nov-09 13:57N 64°10' W 051°43'0 0.0
2017-Nov-09 13:30N 64°10' W 051°43'0 0.0
2017-Nov-09 13:00N 64°10' W 051°43'0 0.0
2017-Nov-09 12:30N 64°10' W 051°43'0 0.0
2017-Nov-09 12:00N 64°10' W 051°43'0 0.0
2017-Nov-09 11:30N 64°10' W 051°43'0 0.0
2017-Nov-09 11:00N 64°10' W 051°43'0 0.0
2017-Nov-09 10:30N 64°10' W 051°43'0 0.0
2017-Nov-09 10:00N 64°10' W 051°43'0 0.0
2017-Nov-09 09:30N 64°10' W 051°43'0 0.0
2017-Nov-09 09:00N 64°10' W 051°43'0 0.0
2017-Nov-09 08:30N 64°10' W 051°43'0 0.0
2017-Nov-09 08:00N 64°10' W 051°43'0 0.0
2017-Nov-09 07:30N 64°10' W 051°43'0 0.0
2017-Nov-09 07:00N 64°10' W 051°43'0 0.0
2017-Nov-09 06:30N 64°10' W 051°43'0 0.0
2017-Nov-09 06:00N 64°10' W 051°43'0 0.0
2017-Nov-09 05:27N 64°10' W 051°43'0 0.0
2017-Nov-09 05:00N 64°10' W 051°43'0 0.0
2017-Nov-09 04:30N 64°10' W 051°43'0 0.0
2017-Nov-09 04:00N 64°10' W 051°43'0 0.0
2017-Nov-09 03:30N 64°10' W 051°43'0 0.0
2017-Nov-09 03:00N 64°10' W 051°43'0 0.0
2017-Nov-09 02:30N 64°10' W 051°43'0 0.0
2017-Nov-09 02:00N 64°10' W 051°43'0 0.0
2017-Nov-09 01:30N 64°10' W 051°43'  
Track history (hours):
 
Tides and Currents Weather Stations Pressure Air Temp Water Temp Dewpoint Dewpoint Depression Visibility Wind Speed Wind Dir Waves Ship Positions

Nuka Arctica

Last reported at 2017-Nov-19 01:21 UTC. Time now 2017-Nov-20 21:30 UTC.
Position N 57°53' E 005°45'.

Length 132.92 m; beam 24 m; draft 7.65 m.

Type: Cargo ship. MMSI: 219655000.

Date/timePositionNaut miles runAvg speedWind from/ knotsBaromVisibWave heightAir tempDewpointWater temp
2017-Nov-19 01:21N 57°53' E 005°45'2 6.4
2017-Nov-19 00:58N 57°53' E 005°50'3 6.6
2017-Nov-19 00:29N 57°53' E 005°56'3 6.7
2017-Nov-19 00:00N 57°53' E 006°02'3 6.0
2017-Nov-18 23:31N 57°52' E 006°07'3 6.5
2017-Nov-18 23:00N 57°52' E 006°13'4 6.9
2017-Nov-18 22:30N 57°51' E 006°20'3 6.5
2017-Nov-18 22:00N 57°51' E 006°26'4 7.1
2017-Nov-18 21:30N 57°50' E 006°32'3 6.7
2017-Nov-18 21:00N 57°48' E 006°37'3 6.2
2017-Nov-18 20:30N 57°46' E 006°42'4 7.3
2017-Nov-18 20:00N 57°47' E 006°49'4 7.8
2017-Nov-18 19:30N 57°47' E 006°56'4 7.4
2017-Nov-18 19:00N 57°47' E 007°03'4 8.2
2017-Nov-18 18:30N 57°47' E 007°11'4 7.6
2017-Nov-18 18:00N 57°47' E 007°18'4 7.1
2017-Nov-18 17:30N 57°46' E 007°24'4 8.9
2017-Nov-18 17:00N 57°46' E 007°32'4 8.3
2017-Nov-18 16:30N 57°46' E 007°40'5 9.2
2017-Nov-18 16:00N 57°46' E 007°49'5 9.0
2017-Nov-18 15:30N 57°46' E 007°57'4 9.1
2017-Nov-18 15:00N 57°46' E 008°05'6811.1
2017-Nov-18 08:51N 57°47' E 010°13'412.1
2017-Nov-18 08:30N 57°47' E 010°21'611.9
2017-Nov-18 08:01N 57°47' E 010°32'611.8
2017-Nov-18 07:30N 57°47' E 010°43'714.1
2017-Nov-18 07:00N 57°40' E 010°45'816.0
2017-Nov-18 06:30N 57°32' E 010°44'815.9
2017-Nov-18 05:59N 57°24' E 010°44'715.1
2017-Nov-18 05:30N 57°16' E 010°42'23 7.8
2017-Nov-18 02:38N 56°55' E 010°29'212.6
2017-Nov-18 02:30N 56°56' E 010°27'510.8
2017-Nov-18 02:00N 56°59' E 010°19'510.6
2017-Nov-18 01:30N 57°00' E 010°10'4 8.5
2017-Nov-18 01:00N 57°03' E 010°03'0 0.0
2017-Nov-18 00:30N 57°03' E 010°03'0 0.0
2017-Nov-17 23:59N 57°03' E 010°03'0 0.0
2017-Nov-17 23:29N 57°03' E 010°03'0 0.0
2017-Nov-17 22:59N 57°03' E 010°03'0 0.0
2017-Nov-17 22:29N 57°03' E 010°03'0 0.0
2017-Nov-17 21:59N 57°03' E 010°03'0 0.0
2017-Nov-17 21:23N 57°03' E 010°03'0 0.0
2017-Nov-17 20:59N 57°03' E 010°03'0 0.0
2017-Nov-17 20:29N 57°03' E 010°03'0 0.0
2017-Nov-17 19:59N 57°03' E 010°03'0 0.0
2017-Nov-17 19:29N 57°03' E 010°03'0 0.0
2017-Nov-17 18:59N 57°03' E 010°03'0 0.0
2017-Nov-17 18:29N 57°03' E 010°03'0 0.0
2017-Nov-17 17:59N 57°03' E 010°03'0 0.0
2017-Nov-17 17:29N 57°03' E 010°03'0 0.0
2017-Nov-17 16:59N 57°03' E 010°03'0 0.0
2017-Nov-17 16:29N 57°03' E 010°03'0 0.0
2017-Nov-17 15:59N 57°03' E 010°03'0 0.0
2017-Nov-17 15:29N 57°03' E 010°03'0 0.0
2017-Nov-17 14:59N 57°03' E 010°03'0 0.0
2017-Nov-17 14:29N 57°03' E 010°03'0 0.0
2017-Nov-17 13:59N 57°03' E 010°03'0 0.0
2017-Nov-17 13:29N 57°03' E 010°03'0 0.0
2017-Nov-17 12:59N 57°03' E 010°03'0 0.0
2017-Nov-17 12:29N 57°03' E 010°03'0 0.0
2017-Nov-17 11:59N 57°03' E 010°03'0 0.0
2017-Nov-17 11:29N 57°03' E 010°03'0 0.0
2017-Nov-17 10:59N 57°03' E 010°03'0 0.0
2017-Nov-17 10:29N 57°03' E 010°03'0 0.0
2017-Nov-17 09:59N 57°03' E 010°03'0 0.0
2017-Nov-17 09:29N 57°03' E 010°03'0 0.0
2017-Nov-17 08:59N 57°03' E 010°03'0 0.0
2017-Nov-17 08:29N 57°03' E 010°03'0 0.0
2017-Nov-17 07:59N 57°03' E 010°03'0 0.0
2017-Nov-17 07:29N 57°03' E 010°03'0 0.0
2017-Nov-17 06:59N 57°03' E 010°03'0 0.0
2017-Nov-17 06:29N 57°03' E 010°03'0 0.0
2017-Nov-17 05:59N 57°03' E 010°03'0 0.0
2017-Nov-17 05:29N 57°03' E 010°03'0 0.0
2017-Nov-17 04:59N 57°03' E 010°03'0 0.0
2017-Nov-17 04:29N 57°03' E 010°03'0 0.0
2017-Nov-17 03:53N 57°03' E 010°03'0 0.0
2017-Nov-17 03:29N 57°03' E 010°03'0 0.0
2017-Nov-17 02:59N 57°03' E 010°03'0 0.0
2017-Nov-17 02:29N 57°03' E 010°03'0 0.0
2017-Nov-17 01:59N 57°03' E 010°03'0 0.0
2017-Nov-17 01:29N 57°03' E 010°03'0 0.0
2017-Nov-17 00:59N 57°03' E 010°03'0 0.0
2017-Nov-17 00:29N 57°03' E 010°03'0 0.0
2017-Nov-16 23:59N 57°03' E 010°03'0 0.0
2017-Nov-16 23:29N 57°03' E 010°03'0 0.0
2017-Nov-16 22:59N 57°03' E 010°03'0 0.0
2017-Nov-16 22:29N 57°03' E 010°03'0 0.0
2017-Nov-16 21:59N 57°03' E 010°03'0 0.0
2017-Nov-16 21:29N 57°03' E 010°03'0 0.0
2017-Nov-16 20:59N 57°03' E 010°03'0 0.0
2017-Nov-16 20:29N 57°03' E 010°03'0 0.0
2017-Nov-16 19:59N 57°03' E 010°03'0 0.0
2017-Nov-16 19:23N 57°03' E 010°03'0 0.0
2017-Nov-16 18:59N 57°03' E 010°03'0 0.0
2017-Nov-16 18:29N 57°03' E 010°03'0 0.0
2017-Nov-16 17:59N 57°03' E 010°03'0 0.0
2017-Nov-16 17:29N 57°03' E 010°03'0 0.0
2017-Nov-16 16:59N 57°03' E 010°03'0 0.0
2017-Nov-16 16:29N 57°03' E 010°03'0 0.0
2017-Nov-16 15:53N 57°03' E 010°03'0 0.0
2017-Nov-16 15:29N 57°03' E 010°03'0 0.0
2017-Nov-16 14:59N 57°03' E 010°03'0 0.0
2017-Nov-16 14:29N 57°03' E 010°03'0 0.0
2017-Nov-16 13:59N 57°03' E 010°03'0 0.0
2017-Nov-16 13:29N 57°03' E 010°03'0 0.0
2017-Nov-16 12:59N 57°03' E 010°03'0 0.0
2017-Nov-16 12:29N 57°03' E 010°03'0 0.0
2017-Nov-16 11:59N 57°03' E 010°03'0 0.0
2017-Nov-16 11:29N 57°03' E 010°03'0 0.0
2017-Nov-16 10:59N 57°03' E 010°03'0 0.0
2017-Nov-16 10:29N 57°03' E 010°03'0 0.0
2017-Nov-16 09:59N 57°03' E 010°03'0 0.0
2017-Nov-16 09:29N 57°03' E 010°03'0 0.0
2017-Nov-16 08:59N 57°03' E 010°03'0 0.0
2017-Nov-16 08:31N 57°03' E 010°03'2 4.2
2017-Nov-16 08:01N 57°02' E 010°07'611.6
2017-Nov-16 07:30N 56°59' E 010°16'611.0
2017-Nov-16 07:00N 56°57' E 010°25'811.8
2017-Nov-16 06:22N 56°52' E 010°36'22 9.0
2017-Nov-16 03:53N 57°14' E 010°43'512.2
2017-Nov-16 03:30N 57°18' E 010°42'612.4
2017-Nov-16 03:01N 57°25' E 010°43'612.8
2017-Nov-16 02:30N 57°31' E 010°43'712.9
2017-Nov-16 02:00N 57°38' E 010°44'712.7
2017-Nov-16 01:28N 57°44' E 010°45'613.1
2017-Nov-16 01:00N 57°46' E 010°35'816.5
2017-Nov-16 00:30N 57°45' E 010°19'1115.9
2017-Nov-15 23:48N 57°44' E 009°58'44415.5
2017-Nov-14 19:04N 59°31' W 003°50'215.9
2017-Nov-14 18:55N 59°31' W 003°54'  
2017-Nov-10 01:10N 63°25' W 051°44'212.6
2017-Nov-10 01:00N 63°27' W 051°46'712.5
2017-Nov-10 00:29N 63°33' W 051°52'612.5
2017-Nov-10 00:00N 63°38' W 051°57'611.9
2017-Nov-09 23:30N 63°44' W 052°02'612.2
2017-Nov-09 23:00N 63°49' W 052°08'612.2
2017-Nov-09 22:31N 63°55' W 052°14'611.9
2017-Nov-09 22:00N 64°00' W 052°17'714.3
2017-Nov-09 21:30N 64°05' W 052°04'917.1
2017-Nov-09 21:00N 64°09' W 051°47'2 3.8
2017-Nov-09 20:30N 64°10' W 051°43'0 0.0
2017-Nov-09 20:00N 64°10' W 051°43'0 0.0
2017-Nov-09 19:30N 64°10' W 051°43'0 0.0
2017-Nov-09 19:00N 64°10' W 051°43'0 0.0
2017-Nov-09 18:30N 64°10' W 051°43'0 0.0
2017-Nov-09 18:00N 64°10' W 051°43'0 0.0
2017-Nov-09 17:30N 64°10' W 051°43'0 0.0
2017-Nov-09 17:00N 64°10' W 051°43'0 0.0
2017-Nov-09 16:30N 64°10' W 051°43'0 0.0
2017-Nov-09 16:00N 64°10' W 051°43'0 0.0
2017-Nov-09 15:30N 64°10' W 051°43'0 0.0
2017-Nov-09 15:00N 64°10' W 051°43'0 0.0
2017-Nov-09 14:30N 64°10' W 051°43'0 0.0
2017-Nov-09 13:57N 64°10' W 051°43'0 0.0
2017-Nov-09 13:30N 64°10' W 051°43'0 0.0
2017-Nov-09 13:00N 64°10' W 051°43'0 0.0
2017-Nov-09 12:30N 64°10' W 051°43'0 0.0
2017-Nov-09 12:00N 64°10' W 051°43'0 0.0
2017-Nov-09 11:30N 64°10' W 051°43'0 0.0
2017-Nov-09 11:00N 64°10' W 051°43'0 0.0
2017-Nov-09 10:30N 64°10' W 051°43'0 0.0
2017-Nov-09 10:00N 64°10' W 051°43'0 0.0
2017-Nov-09 09:30N 64°10' W 051°43'0 0.0
2017-Nov-09 09:00N 64°10' W 051°43'0 0.0
2017-Nov-09 08:30N 64°10' W 051°43'0 0.0
2017-Nov-09 08:00N 64°10' W 051°43'0 0.0
2017-Nov-09 07:30N 64°10' W 051°43'0 0.0
2017-Nov-09 07:00N 64°10' W 051°43'0 0.0
2017-Nov-09 06:30N 64°10' W 051°43'0 0.0
2017-Nov-09 06:00N 64°10' W 051°43'0 0.0
2017-Nov-09 05:27N 64°10' W 051°43'0 0.0
2017-Nov-09 05:00N 64°10' W 051°43'0 0.0
2017-Nov-09 04:30N 64°10' W 051°43'0 0.0
2017-Nov-09 04:00N 64°10' W 051°43'0 0.0
2017-Nov-09 03:30N 64°10' W 051°43'0 0.0
2017-Nov-09 03:00N 64°10' W 051°43'0 0.0
2017-Nov-09 02:30N 64°10' W 051°43'0 0.0
2017-Nov-09 02:00N 64°10' W 051°43'0 0.0
2017-Nov-09 01:30N 64°10' W 051°43'  

Dump ship's entire track history